Time;durP1;ratioP1;P1;durP2;ratioP2;P2;SDS_P1;SDS_P2;PMS_P1;PMS_P2;Temp;Humidity;BMP_temperature;BMP_pressure;BME280_temperature;BME280_humidity;BME280_pressure;Samples;Min_cycle;Max_cycle;Signal;HPM_P1;HPM_P2
2021/07/15 00:00:46;;;;;;;14.93;11.80;;;;;;;18.70;94.84;93080.45;1740980;81;21103;-83
2021/07/15 00:03:18;;;;;;;13.18;11.83;;;;;;;18.62;95.09;93080.59;1767478;81;21055;-81
2021/07/15 00:05:45;;;;;;;14.07;12.68;;;;;;;18.55;95.42;93080.25;1760634;81;21070;-82
2021/07/15 00:08:14;;;;;;;16.32;14.63;;;;;;;18.49;96.18;93079.92;1760557;81;21025;-82
2021/07/15 00:10:46;;;;;;;19.27;13.70;;;;;;;18.47;96.78;93086.47;1760980;81;21119;-82
2021/07/15 00:13:14;;;;;;;21.95;14.13;;;;;;;18.50;97.05;93082.20;1768478;81;21071;-82
2021/07/15 00:15:44;;;;;;;16.07;14.20;;;;;;;18.54;97.29;93083.44;1773216;81;21008;-83
2021/07/15 00:18:11;;;;;;;13.95;12.53;;;;;;;18.57;97.04;93079.78;1773951;81;21000;-83
2021/07/15 00:20:44;;;;;;;13.93;12.45;;;;;;;18.59;96.19;93078.73;1771077;81;21023;-83
2021/07/15 00:23:12;;;;;;;13.03;11.33;;;;;;;18.58;95.30;93076.59;1769743;81;21691;-81
2021/07/15 00:25:40;;;;;;;12.85;11.63;;;;;;;18.46;94.99;93076.08;1769673;81;21083;-81
2021/07/15 00:28:07;;;;;;;14.75;12.68;;;;;;;18.39;95.58;93078.52;1769872;81;21019;-82
2021/07/15 00:30:34;;;;;;;16.52;12.50;;;;;;;18.41;95.38;93082.95;1766205;81;21082;-80
2021/07/15 00:33:02;;;;;;;17.07;12.47;;;;;;;18.41;94.92;93079.44;1760206;81;22032;-81
2021/07/15 00:35:32;;;;;;;13.62;12.23;;;;;;;18.27;95.37;93079.98;1759547;81;21036;-81
2021/07/15 00:37:58;;;;;;;13.95;12.13;;;;;;;18.12;96.13;93076.39;1705315;82;21064;-82
2021/07/15 00:40:25;;;;;;;14.75;12.28;;;;;;;18.01;96.92;93082.15;1725568;82;21051;-82
2021/07/15 00:42:53;;;;;;;13.43;11.40;;;;;;;17.91;97.69;93082.11;1716043;82;21148;-83
2021/07/15 00:45:20;;;;;;;15.78;12.70;;;;;;;17.90;98.08;93089.42;1730551;81;21636;-83
2021/07/15 00:47:46;;;;;;;14.87;11.68;;;;;;;17.90;97.81;93087.46;1758990;81;21076;-82
2021/07/15 00:50:17;;;;;;;12.33;11.05;;;;;;;17.93;97.46;93079.66;1744247;82;21250;-81
2021/07/15 00:52:44;;;;;;;14.80;13.28;;;;;;;17.87;97.30;93082.09;1766138;80;21039;-82
2021/07/15 00:55:15;;;;;;;15.30;11.38;;;;;;;17.80;97.84;93076.85;1796306;78;21018;-83
2021/07/15 00:57:41;;;;;;;15.00;12.05;;;;;;;17.79;98.45;93080.80;1743312;80;21670;-83
2021/07/15 01:00:09;;;;;;;12.82;11.53;;;;;;;17.85;98.17;93073.51;1769880;80;21757;-82
2021/07/15 01:02:38;;;;;;;17.55;12.07;;;;;;;17.90;97.62;93077.84;1739366;82;21030;-83
2021/07/15 01:05:16;;;;;;;15.48;11.18;;;;;;;17.89;97.55;93081.02;1809285;79;20972;-83
2021/07/15 01:07:42;;;;;;;13.28;11.55;;;;;;;17.84;97.65;93078.86;1750872;80;21006;-83
2021/07/15 01:10:12;;;;;;;15.20;11.80;;;;;;;17.81;97.65;93080.52;1761052;80;21034;-83
2021/07/15 01:13:14;;;;;;;11.75;10.32;;;;;;;17.82;97.88;93077.16;1760310;78;21133;-83
2021/07/15 01:15:47;;;;;;;14.07;11.28;;;;;;;17.83;97.64;93080.84;1738647;81;21460;-78
2021/07/15 01:19:03;;;;;;;12.80;10.28;;;;;;;17.78;97.44;93076.52;1744035;82;21053;-80
2021/07/15 01:21:52;;;;;;;12.47;10.75;;;;;;;17.73;97.76;93075.09;1739763;82;21116;-81
2021/07/15 01:25:12;;;;;;;12.30;11.12;;;;;;;17.69;97.93;93073.09;1755374;79;21127;-81
2021/07/15 01:28:01;;;;;;;14.85;11.75;;;;;;;17.61;98.18;93072.58;1747965;81;21060;-82
2021/07/15 01:30:36;;;;;;;15.60;12.20;;;;;;;17.59;98.28;93082.48;1775023;80;21022;-81
2021/07/15 01:33:18;;;;;;;19.15;14.07;;;;;;;17.60;98.53;93078.51;1738725;81;21009;-83
2021/07/15 01:36:06;;;;;;;17.42;14.75;;;;;;;17.65;98.93;93075.20;1750849;81;21098;-82
2021/07/15 01:38:41;;;;;;;14.28;11.95;;;;;;;17.73;99.20;93079.98;1731917;81;21024;-81
2021/07/15 01:41:14;;;;;;;16.75;13.00;;;;;;;17.82;98.86;93079.29;1721406;81;21110;-81
2021/07/15 01:43:44;;;;;;;13.78;11.75;;;;;;;17.84;98.11;93082.38;1750708;81;21359;-81
2021/07/15 01:46:12;;;;;;;12.88;11.57;;;;;;;17.83;97.62;93071.22;1759415;80;20988;-81
2021/07/15 01:48:40;;;;;;;12.07;10.78;;;;;;;17.82;97.44;93080.66;1775183;79;21023;-82
2021/07/15 01:51:07;;;;;;;;;;;;;;;;;;;;;
2021/07/15 01:53:35;;;;;;;11.25;10.08;;;;;;;17.79;97.22;93082.17;1726598;82;22448;-82
2021/07/15 01:56:02;;;;;;;11.93;10.48;;;;;;;17.71;97.14;93087.14;1776545;79;21039;-81
2021/07/15 01:58:31;;;;;;;14.55;11.15;;;;;;;17.64;97.37;93076.39;1771166;80;21087;-81
2021/07/15 02:00:59;;;;;;;13.95;11.85;;;;;;;17.58;97.58;93081.72;1762882;80;21083;-82
2021/07/15 02:03:26;;;;;;;12.65;11.35;;;;;;;17.54;97.75;93076.19;1762883;81;21389;-81
2021/07/15 02:05:53;;;;;;;15.68;12.30;;;;;;;17.51;97.89;93075.70;1751366;81;21835;-82
2021/07/15 02:08:20;;;;;;;14.43;12.33;;;;;;;17.54;98.28;93080.31;1769387;81;21066;-83
2021/07/15 02:10:48;;;;;;;20.05;13.62;;;;;;;17.55;98.09;93075.73;1775659;80;21070;-83
2021/07/15 02:13:17;;;;;;;13.83;12.37;;;;;;;17.55;97.90;93079.86;1772212;80;21032;-83
2021/07/15 02:15:45;;;;;;;16.70;13.88;;;;;;;17.53;97.42;93082.30;1763785;80;21023;-81
2021/07/15 02:18:17;;;;;;;17.48;14.13;;;;;;;17.51;97.49;93079.83;1771731;81;21043;-81
2021/07/15 02:20:47;;;;;;;20.00;14.93;;;;;;;17.51;97.39;93075.70;1791216;79;21073;-81
2021/07/15 02:23:15;;;;;;;16.95;14.28;;;;;;;17.48;97.39;93071.25;1767214;79;21071;-82
2021/07/15 02:25:43;;;;;;;16.48;13.15;;;;;;;17.47;97.29;93075.83;1764615;80;21113;-81
2021/07/15 02:28:12;;;;;;;14.70;13.08;;;;;;;17.42;97.23;93072.30;1744879;81;21000;-81
2021/07/15 02:30:39;;;;;;;16.93;13.55;;;;;;;17.38;97.37;93077.16;1767450;80;21046;-82
2021/07/15 02:33:14;;;;;;;18.10;14.20;;;;;;;17.35;97.45;93066.44;1779658;80;21035;-82
2021/07/15 02:35:48;;;;;;;17.15;14.03;;;;;;;17.34;97.74;93075.91;1777478;79;21074;-82
2021/07/15 02:38:19;;;;;;;15.18;13.58;;;;;;;17.34;97.40;93080.61;1760941;80;21002;-82
2021/07/15 02:40:45;;;;;;;15.00;13.40;;;;;;;17.32;97.23;93064.58;1760159;81;21082;-81
2021/07/15 02:43:12;;;;;;;20.17;14.18;;;;;;;17.29;97.36;93063.33;1747368;81;21181;-82
2021/07/15 02:45:40;;;;;;;15.28;13.58;;;;;;;17.26;97.70;93073.22;1716508;82;21019;-80
2021/07/15 02:48:07;;;;;;;16.00;13.75;;;;;;;17.26;97.79;93062.23;1731910;83;21056;-84
2021/07/15 02:50:35;;;;;;;17.82;14.00;;;;;;;17.28;97.89;93056.30;1756426;81;21095;-86
2021/07/15 02:53:01;;;;;;;16.90;13.05;;;;;;;17.30;97.71;93062.90;1761232;81;21055;-82
2021/07/15 02:55:28;;;;;;;18.05;13.03;;;;;;;17.28;97.42;93062.56;1764581;81;21098;-84
2021/07/15 02:58:16;;;;;;;14.75;12.40;;;;;;;17.29;97.20;93060.58;1771224;80;21091;-84
2021/07/15 03:00:51;;;;;;;17.25;14.05;;;;;;;17.28;97.10;93060.42;1739908;81;21094;-81
2021/07/15 03:03:34;;;;;;;14.83;12.40;;;;;;;17.25;97.25;93056.58;1769367;81;21063;-80
2021/07/15 03:06:10;;;;;;;16.65;13.48;;;;;;;17.22;97.32;93055.48;1770212;81;21129;-81
2021/07/15 03:08:45;;;;;;;15.23;13.62;;;;;;;17.18;97.50;93054.08;1771518;80;21107;-81
2021/07/15 03:11:12;;;;;;;15.00;12.85;;;;;;;17.11;97.84;93063.36;1774466;81;20936;-81
2021/07/15 03:13:43;;;;;;;18.95;13.22;;;;;;;17.04;98.32;93062.22;1735090;81;21064;-84
2021/07/15 03:16:13;;;;;;;15.60;13.83;;;;;;;17.02;98.49;93059.14;1703309;83;21035;-84
2021/07/15 03:18:41;;;;;;;15.00;12.33;;;;;;;17.01;98.80;93058.22;1725691;82;21546;-82
2021/07/15 03:21:07;;;;;;;15.35;13.20;;;;;;;17.01;98.62;93056.85;1723874;83;22168;-81
2021/07/15 03:23:36;;;;;;;15.15;13.62;;;;;;;16.97;98.50;93059.72;1730221;82;21060;-82
2021/07/15 03:26:03;;;;;;;17.00;13.43;;;;;;;16.94;98.50;93059.23;1731180;82;21056;-82
2021/07/15 03:28:32;;;;;;;15.30;12.80;;;;;;;16.90;98.61;93051.72;1740406;81;21103;-81
2021/07/15 03:31:06;;;;;;;15.78;13.58;;;;;;;16.91;98.86;93049.13;1723633;80;21036;-83
2021/07/15 03:33:33;;;;;;;16.05;14.38;;;;;;;16.92;98.69;93044.55;1747741;81;21192;-82
2021/07/15 03:36:02;;;;;;;18.07;12.85;;;;;;;16.91;98.54;93052.64;1718307;82;20964;-83
2021/07/15 03:38:29;;;;;;;15.30;13.38;;;;;;;16.96;98.40;93054.05;1760649;81;21134;-83
2021/07/15 03:40:55;;;;;;;17.80;13.88;;;;;;;17.02;98.37;93052.28;1765095;80;21028;-83
2021/07/15 03:43:22;;;;;;;21.77;13.08;;;;;;;17.03;98.09;93057.92;1739146;81;21130;-84
2021/07/15 03:45:49;;;;;;;18.17;13.32;;;;;;;17.05;98.07;93058.26;1723932;83;21128;-83
2021/07/15 03:48:17;;;;;;;16.20;12.78;;;;;;;17.07;97.83;93060.55;1721208;82;21097;-83
2021/07/15 03:50:43;;;;;;;15.78;12.80;;;;;;;17.07;97.92;93056.43;1746513;81;21107;-84
2021/07/15 03:53:10;;;;;;;19.30;12.82;;;;;;;17.08;98.33;93057.37;1740942;80;21037;-82
2021/07/15 03:55:39;;;;;;;14.73;13.00;;;;;;;17.12;97.98;93048.41;1773722;80;21033;-82
2021/07/15 03:58:07;;;;;;;13.32;11.90;;;;;;;17.17;97.61;93046.45;1719209;82;21769;-85
2021/07/15 04:00:37;;;;;;;14.60;11.48;;;;;;;17.21;97.54;93038.84;1746171;82;21121;-83
2021/07/15 04:03:05;;;;;;;14.80;11.38;;;;;;;17.24;97.19;93049.56;1738154;82;21113;-82
2021/07/15 04:05:32;;;;;;;15.98;11.53;;;;;;;17.26;96.62;93049.10;1727766;80;21611;-82
2021/07/15 04:08:00;;;;;;;14.03;11.75;;;;;;;17.26;96.68;93050.47;1720560;81;21060;-84
2021/07/15 04:10:31;;;;;;;16.52;11.80;;;;;;;17.28;96.81;93052.18;1766763;79;21114;-82
2021/07/15 04:13:01;;;;;;;18.48;14.47;;;;;;;17.31;97.05;93058.92;1761231;79;21073;-82
2021/07/15 04:15:50;;;;;;;24.82;16.73;;;;;;;17.39;97.10;93055.31;1743755;81;21069;-84
2021/07/15 04:18:18;;;;;;;20.23;16.65;;;;;;;17.51;97.05;93055.09;1749078;78;21126;-83
2021/07/15 04:20:45;;;;;;;20.45;15.60;;;;;;;17.64;96.58;93051.65;1731900;82;21049;-83
2021/07/15 04:23:13;;;;;;;18.25;14.15;;;;;;;17.77;96.52;93055.13;1779840;78;21608;-84
2021/07/15 04:25:40;;;;;;;15.55;12.75;;;;;;;17.93;95.91;93047.27;1808300;79;20964;-82
2021/07/15 04:28:09;;;;;;;16.00;12.75;;;;;;;18.07;95.30;93052.84;1741222;81;21711;-83
2021/07/15 04:30:35;;;;;;;13.70;12.15;;;;;;;18.16;94.93;93056.39;1717613;83;21079;-84
2021/07/15 04:33:09;;;;;;;16.15;12.58;;;;;;;18.37;94.81;93052.66;1712726;83;21051;-84
2021/07/15 04:35:35;;;;;;;20.40;14.25;;;;;;;18.67;94.03;93045.55;1729207;82;21104;-83
2021/07/15 04:38:03;;;;;;;18.70;13.00;;;;;;;18.97;92.42;93044.56;1755774;79;21006;-85
2021/07/15 04:40:31;;;;;;;13.68;11.93;;;;;;;19.24;90.95;93043.20;1741349;80;21386;-81
2021/07/15 04:43:03;;;;;;;15.32;10.93;;;;;;;19.49;89.14;93043.50;1774601;79;21070;-83
2021/07/15 04:45:38;;;;;;;13.65;10.50;;;;;;;19.74;87.92;93037.50;1767941;79;21277;-85
2021/07/15 04:48:06;;;;;;;19.75;12.30;;;;;;;19.95;86.51;93036.55;1717972;80;21428;-84
2021/07/15 04:50:35;;;;;;;15.75;13.88;;;;;;;20.12;84.89;93037.73;1772352;79;20998;-82
2021/07/15 04:53:12;;;;;;;17.52;14.83;;;;;;;20.28;83.65;93037.20;1772512;79;21068;-83
2021/07/15 04:55:43;;;;;;;16.65;14.20;;;;;;;20.31;83.20;93041.77;1752846;79;22046;-84
2021/07/15 04:58:12;;;;;;;13.35;12.05;;;;;;;20.22;82.96;93039.06;1758336;79;21999;-84
2021/07/15 05:00:40;;;;;;;10.65;9.53;;;;;;;20.14;82.57;93033.87;1743948;80;21201;-83
2021/07/15 05:03:33;;;;;;;12.23;11.00;;;;;;;20.16;82.50;93035.39;1761324;79;21079;-85
2021/07/15 05:06:07;;;;;;;11.55;10.15;;;;;;;20.18;82.65;93033.70;1748763;79;21073;-84
2021/07/15 05:08:39;;;;;;;10.35;9.35;;;;;;;20.18;82.97;93033.70;1727383;80;21026;-81
2021/07/15 05:11:09;;;;;;;9.95;9.05;;;;;;;20.18;82.62;93032.33;1729980;79;21047;-84
2021/07/15 05:13:38;;;;;;;9.95;8.95;;;;;;;20.21;82.84;93041.68;1740135;79;21195;-82
2021/07/15 05:16:07;;;;;;;16.77;10.20;;;;;;;20.25;83.66;93036.13;1760953;79;20999;-83
2021/07/15 05:18:34;;;;;;;12.78;11.18;;;;;;;20.35;83.73;93045.92;1729088;80;21113;-82
2021/07/15 05:21:03;;;;;;;14.95;12.63;;;;;;;20.50;83.38;93039.75;1784009;77;21537;-84
2021/07/15 05:23:29;;;;;;;15.90;13.43;;;;;;;20.69;82.41;93037.66;1776858;77;21081;-83
2021/07/15 05:25:58;;;;;;;16.65;14.05;;;;;;;20.87;81.59;93037.52;1738808;80;21124;-83
2021/07/15 05:28:32;;;;;;;15.80;13.25;;;;;;;21.10;79.41;93032.63;1741488;80;21127;-83
2021/07/15 05:31:01;;;;;;;18.00;13.98;;;;;;;21.39;78.63;93038.11;1713700;81;21072;-81
2021/07/15 05:33:29;;;;;;;16.25;12.68;;;;;;;21.73;76.94;93036.72;1741974;79;21027;-83
2021/07/15 05:35:56;;;;;;;16.40;13.72;;;;;;;22.10;75.54;93033.58;1756610;79;21063;-83
2021/07/15 05:38:24;;;;;;;14.10;12.73;;;;;;;22.51;74.80;93030.98;1773604;79;21046;-81
2021/07/15 05:40:53;;;;;;;15.30;12.75;;;;;;;22.92;73.98;93037.39;1791001;78;21122;-81
2021/07/15 05:43:21;;;;;;;13.35;12.10;;;;;;;23.19;71.38;93030.67;1766065;79;21034;-85
2021/07/15 05:45:50;;;;;;;15.35;13.80;;;;;;;23.37;70.25;93032.40;1769903;79;21134;-84
2021/07/15 05:48:19;;;;;;;14.43;13.08;;;;;;;23.39;68.92;93033.29;1734455;79;21049;-84
2021/07/15 05:50:59;;;;;;;18.65;15.13;;;;;;;23.35;69.27;93025.80;1739003;80;21133;-85
2021/07/15 05:53:40;;;;;;;15.35;13.75;;;;;;;23.28;69.37;93026.98;1741028;81;21067;-81
2021/07/15 05:56:17;;;;;;;16.50;12.68;;;;;;;23.23;68.80;93018.73;1735463;81;21112;-83
2021/07/15 05:58:47;;;;;;;13.53;11.90;;;;;;;23.19;68.15;93020.96;1721130;79;21067;-82
2021/07/15 06:01:16;;;;;;;16.32;12.45;;;;;;;23.19;67.59;93019.58;1763832;79;21003;-83
2021/07/15 06:03:47;;;;;;;14.78;13.00;;;;;;;23.30;67.42;93017.56;1767981;79;21547;-82
2021/07/15 06:06:14;;;;;;;14.00;11.60;;;;;;;23.51;67.40;93012.14;1782349;78;21054;-82
2021/07/15 06:08:41;;;;;;;11.50;10.43;;;;;;;23.84;65.92;93016.52;1763094;78;21066;-84
2021/07/15 06:11:12;;;;;;;12.43;11.08;;;;;;;24.25;64.12;93014.98;1729353;79;21042;-85
2021/07/15 06:13:42;;;;;;;13.28;10.18;;;;;;;24.63;62.23;93010.23;1765476;79;21531;-84
2021/07/15 06:16:08;;;;;;;10.78;9.68;;;;;;;24.82;60.80;93017.55;1716358;80;21768;-83
2021/07/15 06:18:47;;;;;;;12.68;11.35;;;;;;;24.85;60.89;93017.95;1774957;78;21619;-85
2021/07/15 06:21:14;;;;;;;11.20;9.63;;;;;;;24.89;61.27;93018.47;1746129;78;21109;-84
2021/07/15 06:23:43;;;;;;;11.78;10.58;;;;;;;24.90;60.01;93011.05;1748251;79;21050;-84
2021/07/15 06:26:11;;;;;;;12.43;9.33;;;;;;;24.92;60.29;93013.31;1776416;78;21532;-84
2021/07/15 06:28:39;;;;;;;11.63;9.30;;;;;;;24.92;58.59;93016.86;1719095;81;21868;-82
2021/07/15 06:31:08;;;;;;;12.90;10.43;;;;;;;24.93;58.81;93014.83;1762987;79;21090;-82
2021/07/15 06:33:53;;;;;;;10.50;9.38;;;;;;;24.90;58.66;93012.44;1763843;79;21021;-83
2021/07/15 06:36:31;;;;;;;11.10;10.00;;;;;;;24.88;57.46;93016.33;1771567;79;21012;-84
2021/07/15 06:39:04;;;;;;;10.65;8.80;;;;;;;24.83;57.95;93015.67;1758196;79;21199;-82
2021/07/15 06:41:35;;;;;;;10.55;9.45;;;;;;;24.81;58.53;93016.03;1740181;79;24588;-82
2021/07/15 06:44:02;;;;;;;11.28;9.60;;;;;;;24.79;57.45;93013.00;1690613;81;21625;-80
2021/07/15 06:47:46;;;;;;;11.45;8.60;;;;;;;24.68;57.72;93012.30;1866357;75;23936;-80
2021/07/15 06:50:18;;;;;;;13.32;9.63;;;;;;;24.54;57.65;93007.66;1832956;76;21041;-82
2021/07/15 06:52:47;;;;;;;9.68;8.58;;;;;;;24.44;58.24;93003.66;1798115;77;22147;-82
2021/07/15 06:55:16;;;;;;;9.15;8.03;;;;;;;24.37;58.22;93006.10;1795281;77;21078;-83
2021/07/15 06:58:19;;;;;;;11.63;10.05;;;;;;;24.34;57.81;93002.31;1787475;77;21586;-81
2021/07/15 07:00:50;;;;;;;12.93;10.18;;;;;;;24.37;59.09;93007.49;1755451;79;21054;-84
2021/07/15 07:03:23;;;;;;;10.03;9.13;;;;;;;24.38;58.16;93004.87;1811972;77;21013;-83
2021/07/15 07:05:55;;;;;;;17.23;10.63;;;;;;;24.36;59.72;92997.01;1752339;80;21112;-81
2021/07/15 07:08:29;;;;;;;19.25;9.45;;;;;;;24.36;59.89;93001.17;1741350;79;21098;-85
2021/07/15 07:11:01;;;;;;;10.70;9.70;;;;;;;24.35;60.00;93001.05;1758025;80;21001;-83
2021/07/15 07:13:31;;;;;;;11.15;10.03;;;;;;;24.38;60.18;93000.06;1790455;77;21034;-85
2021/07/15 07:16:01;;;;;;;11.08;9.98;;;;;;;24.45;61.15;92991.94;1755852;80;21085;-84
2021/07/15 07:18:40;;;;;;;10.32;9.13;;;;;;;24.55;61.67;92994.64;1723917;80;21093;-84
2021/07/15 07:24:41;;;;;;;11.95;10.48;;;;;;;24.91;60.84;92984.75;1834548;76;24625;-85
2021/07/15 07:27:11;;;;;;;13.83;10.98;;;;;;;25.01;60.30;92990.09;1736059;78;21578;-84
2021/07/15 07:29:41;;;;;;;11.25;9.73;;;;;;;25.12;59.54;92988.78;1723450;81;21174;-82
2021/07/15 07:32:10;;;;;;;11.80;10.48;;;;;;;25.25;60.11;92983.53;1722584;81;20997;-85
2021/07/15 07:34:41;;;;;;;12.15;9.93;;;;;;;25.43;59.90;92987.27;1715543;81;21591;-82
2021/07/15 07:37:17;;;;;;;11.60;10.38;;;;;;;25.60;58.14;92986.55;1712815;81;21002;-82
2021/07/15 07:53:16;;;;;;;19.62;8.00;;;;;;;27.10;51.81;92979.42;1790454;77;22728;-85
2021/07/15 07:59:08;;;;;;;13.68;8.08;;;;;;;27.25;49.61;92974.20;1773681;78;20952;-83
2021/07/15 08:01:51;;;;;;;11.50;8.08;;;;;;;27.27;51.17;92972.42;1800510;77;21087;-84
2021/07/15 08:04:18;;;;;;;8.45;7.22;;;;;;;27.28;50.77;92966.95;1805047;78;21017;-83
2021/07/15 08:06:48;;;;;;;9.48;8.58;;;;;;;27.25;50.02;92965.83;1783378;77;21021;-83
2021/07/15 08:09:23;;;;;;;9.47;8.57;;;;;;;27.24;48.96;92962.28;1825995;77;20996;-85
2021/07/15 08:11:54;;;;;;;9.03;7.90;;;;;;;27.27;49.42;92963.27;1766137;77;21101;-83
2021/07/15 08:14:36;;;;;;;8.55;7.65;;;;;;;27.28;49.25;92962.77;1757970;79;21049;-84
2021/07/15 08:17:20;;;;;;;9.30;8.23;;;;;;;27.26;50.53;92960.36;1807486;77;21050;-83
2021/07/15 08:20:32;;;;;;;9.03;8.13;;;;;;;27.27;51.01;92960.48;1785582;77;21034;-84
2021/07/15 08:22:52;;;;;;;10.78;9.53;;;;;;;27.27;50.34;92962.66;1748578;80;21598;-82
2021/07/15 08:25:28;;;;;;;16.60;8.43;;;;;;;27.28;49.09;92956.44;1755486;79;21441;-83
2021/07/15 08:51:01;;;;;;;12.15;8.55;;;;;;;27.47;49.70;92939.84;1768358;79;21057;-80
2021/07/15 08:53:30;;;;;;;9.93;8.33;;;;;;;27.47;49.61;92933.63;1746137;78;21335;-81
2021/07/15 08:58:53;;;;;;;10.23;8.78;;;;;;;27.57;49.53;92929.89;1693101;82;21086;-80
2021/07/15 09:01:28;;;;;;;11.70;10.40;;;;;;;27.63;48.82;92935.44;1719249;81;21410;-81
2021/07/15 09:06:47;;;;;;;12.45;11.05;;;;;;;27.73;48.17;92933.21;1756720;79;21000;-81
2021/07/15 09:09:16;;;;;;;9.83;8.75;;;;;;;27.79;47.40;92931.14;1732298;79;21082;-80
2021/07/15 09:11:46;;;;;;;10.08;8.30;;;;;;;27.84;46.21;92927.58;1734651;80;20974;-79
2021/07/15 09:14:49;;;;;;;11.25;7.85;;;;;;;27.88;45.74;92934.28;1754391;80;21131;-79
2021/07/15 09:17:35;;;;;;;9.48;8.13;;;;;;;27.91;45.07;92923.47;1731222;80;21721;-80
2021/07/15 09:20:27;;;;;;;9.33;8.43;;;;;;;27.95;44.41;92928.13;1661691;83;21080;-81
2021/07/15 09:26:03;;;;;;;9.20;8.28;;;;;;;27.94;45.94;92929.39;1769956;78;21061;-79
2021/07/15 09:28:35;;;;;;;9.60;7.85;;;;;;;27.89;45.67;92935.79;1698408;83;21581;-78
2021/07/15 09:31:26;;;;;;;10.82;8.98;;;;;;;27.85;45.79;92932.52;1716777;81;21158;-78
2021/07/15 09:34:06;;;;;;;10.55;8.68;;;;;;;27.81;45.81;92932.80;1716196;81;21058;-79
2021/07/15 09:36:53;;;;;;;12.63;9.03;;;;;;;27.76;45.80;92932.84;1769197;77;21118;-82
2021/07/15 09:39:30;;;;;;;;;;;;;;;27.75;46.33;92937.66;1788866;77;21050;-81
2021/07/15 09:42:25;;;;;;;12.80;10.30;;;;;;;27.71;46.28;92932.20;1758335;79;20141;-79
2021/07/15 09:45:12;;;;;;;10.80;9.80;;;;;;;27.62;46.29;92934.68;1740955;79;21061;-79
2021/07/15 09:50:40;;;;;;;;;;;;;;;27.47;48.01;92937.80;1758594;80;21050;-80
2021/07/15 10:04:46;;;;;;;16.23;12.98;;;;;;;27.35;49.95;92937.11;1716840;81;21235;-80
2021/07/15 10:07:27;;;;;;;15.85;10.70;;;;;;;27.29;49.60;92944.75;1690450;80;21115;-80
2021/07/15 10:12:55;;;;;;;12.70;10.38;;;;;;;27.22;49.63;92947.31;1736093;80;21018;-77
2021/07/15 10:15:41;;;;;;;;;;;;;;;27.25;50.07;92942.86;1786143;78;20998;-78
2021/07/15 10:18:12;;;;;;;10.48;9.48;;;;;;;27.32;49.71;92940.92;1778138;78;21096;-79
2021/07/15 10:20:57;;;;;;;11.68;8.95;;;;;;;27.43;50.27;92943.55;1743977;79;21037;-76
2021/07/15 10:23:54;;;;;;;11.75;10.55;;;;;;;27.49;49.58;92945.66;1779509;77;21019;-76
2021/07/15 10:26:36;;;;;;;13.03;10.15;;;;;;;27.54;49.74;92943.48;1792025;77;21016;-78
2021/07/15 10:29:05;;;;;;;14.40;10.08;;;;;;;27.54;49.50;92939.30;1735259;80;21037;-78
2021/07/15 10:31:40;;;;;;;10.72;9.78;;;;;;;27.56;49.11;92943.72;1726239;82;21129;-78
2021/07/15 10:34:11;;;;;;;11.85;9.80;;;;;;;27.60;48.40;92938.61;1716653;82;21082;-78
2021/07/15 10:36:41;;;;;;;12.43;9.95;;;;;;;27.64;48.51;92941.88;1747315;80;21893;-79
2021/07/15 10:39:21;;;;;;;13.32;10.08;;;;;;;27.66;49.74;92935.16;1773148;79;21025;-79
2021/07/15 10:41:56;;;;;;;11.57;10.38;;;;;;;27.70;49.25;92934.23;1755084;79;21040;-79
2021/07/15 10:44:27;;;;;;;14.25;11.20;;;;;;;27.74;48.34;92926.98;1757639;79;26089;-79
2021/07/15 10:50:22;;;;;;;12.13;10.30;;;;;;;27.83;49.15;92932.27;1757008;78;20961;-78
2021/07/15 10:52:54;;;;;;;13.65;10.48;;;;;;;27.97;50.37;92935.98;1753860;79;21492;-78
2021/07/15 10:55:27;;;;;;;13.70;11.25;;;;;;;28.06;50.19;92926.66;1802449;78;21039;-78
2021/07/15 11:01:49;;;;;;;13.32;11.88;;;;;;;28.26;50.36;92931.70;1756468;80;21458;-79
2021/07/15 11:07:28;;;;;;;14.78;11.33;;;;;;;28.27;51.26;92926.97;1717824;81;21133;-81
2021/07/15 11:10:23;;;;;;;15.88;11.43;;;;;;;28.29;53.54;92928.61;1797962;77;21503;-77
2021/07/15 11:13:26;;;;;;;21.07;14.23;;;;;;;28.26;53.66;92929.66;1669544;84;21556;-79
2021/07/15 11:22:11;;;;;;;18.10;14.65;;;;;;;27.98;54.98;92927.10;1720537;80;21728;-77
2021/07/15 11:30:20;;;;;;;16.65;13.88;;;;;;;27.63;55.51;92931.24;1736653;81;21010;-79
2021/07/15 11:33:37;;;;;;;;;;;;;;;;;;;;;
2021/07/15 11:36:26;;;;;;;17.32;13.78;;;;;;;27.41;55.91;92933.52;1715486;82;21041;-78
2021/07/15 11:39:10;;;;;;;14.75;12.58;;;;;;;27.32;56.14;92934.59;1778985;77;21068;-79
2021/07/15 11:41:56;;;;;;;16.35;14.03;;;;;;;27.25;56.51;92941.47;1751305;77;21022;-79
2021/07/15 11:44:38;;;;;;;22.77;14.43;;;;;;;27.18;55.88;92932.23;1776689;77;20953;-79
2021/07/15 11:47:35;;;;;;;17.67;13.00;;;;;;;27.13;55.81;92932.27;1767058;77;21506;-78
2021/07/15 11:53:30;;;;;;;17.37;12.55;;;;;;;27.07;56.10;92923.89;1702626;82;21073;-78
2021/07/15 11:56:22;;;;;;;18.25;12.00;;;;;;;27.09;55.94;92920.71;1706074;82;21677;-79
2021/07/15 11:58:51;;;;;;;17.02;14.60;;;;;;;27.21;56.95;92929.82;1756493;79;21122;-79
2021/07/15 12:01:52;;;;;;;14.73;13.00;;;;;;;27.36;57.27;92929.49;1722793;79;21061;-77
2021/07/15 12:05:38;;;;;;;24.98;14.38;;;;;;;27.48;57.11;92940.72;1681868;83;21544;-81
2021/07/15 12:08:29;;;;;;;22.15;15.30;;;;;;;27.57;55.74;92932.69;1704247;82;21002;-81
2021/07/15 12:11:38;;;;;;;25.88;14.58;;;;;;;27.57;55.73;92918.73;1759044;80;20986;-81
2021/07/15 12:14:18;;;;;;;16.12;13.05;;;;;;;27.57;55.93;92918.73;1748366;80;21165;-80
2021/07/15 12:19:52;;;;;;;21.93;13.90;;;;;;;27.50;56.72;92925.61;1709485;81;21562;-79
2021/07/15 12:25:44;;;;;;;12.50;11.05;;;;;;;27.33;56.40;92920.11;1737459;82;21034;-82
2021/07/15 12:28:21;;;;;;;14.00;12.00;;;;;;;27.22;55.14;92932.72;1778297;80;21056;-86
2021/07/15 12:31:22;;;;;;;13.38;12.03;;;;;;;27.10;55.24;92937.57;1694965;81;21077;-82
2021/07/15 12:34:24;;;;;;;12.47;11.35;;;;;;;27.04;56.34;92940.25;1711836;81;21060;-82
2021/07/15 12:36:54;;;;;;;13.95;11.65;;;;;;;27.02;59.43;92944.97;1732669;82;20995;-81
2021/07/15 12:39:21;;;;;;;15.23;12.30;;;;;;;27.02;60.39;92947.00;1735960;82;21133;-82
2021/07/15 12:41:56;;;;;;;15.38;13.05;;;;;;;26.97;61.30;92945.75;1726841;81;21089;-81
2021/07/15 12:44:25;;;;;;;14.20;12.40;;;;;;;26.83;62.33;92946.80;1739912;81;21077;-81
2021/07/15 12:49:42;;;;;;;14.85;12.82;;;;;;;26.56;63.20;92949.16;1729318;81;21046;-81
2021/07/15 12:52:12;;;;;;;13.53;12.28;;;;;;;26.38;63.83;92955.98;1737006;81;21109;-78
2021/07/15 12:54:53;;;;;;;16.95;13.22;;;;;;;26.23;64.80;92963.09;1755232;80;21516;-82
2021/07/15 12:58:16;;;;;;;;;;;;;;;;;;;;;
2021/07/15 13:00:48;;;;;;;30.25;22.70;;;;;;;26.03;65.73;92976.02;1707081;83;21027;-80
2021/07/15 13:15:58;;;;;;;18.60;13.65;;;;;;;24.53;82.46;92962.44;1786644;78;21121;-81
2021/07/15 13:18:29;;;;;;;16.82;13.05;;;;;;;24.34;84.55;92944.60;1742286;80;21033;-81
2021/07/15 13:23:41;;;;;;;15.68;13.98;;;;;;;24.21;85.34;92949.92;1743914;80;21079;-84
2021/07/15 13:28:56;;;;;;;18.15;14.95;;;;;;;23.95;83.32;92953.39;1736611;80;21117;-81
2021/07/15 13:34:29;;;;;;;13.93;12.45;;;;;;;23.88;84.17;92944.90;1758424;80;21037;-84
2021/07/15 13:54:14;;;;;;;15.75;13.00;;;;;;;24.20;88.74;92973.41;1749171;79;21024;-83
2021/07/15 13:57:12;;;;;;;17.30;13.55;;;;;;;24.40;88.26;92975.34;1730821;80;21041;-83
2021/07/15 13:59:47;;;;;;;13.90;12.47;;;;;;;24.54;85.97;92974.30;1703434;79;21030;-81
2021/07/15 14:23:19;;;;;;;14.63;12.10;;;;;;;25.61;78.07;92931.77;1786071;77;21653;-81
2021/07/15 14:25:55;;;;;;;16.97;13.15;;;;;;;25.66;75.11;92926.08;1713483;79;21096;-80
2021/07/15 14:35:48;;;;;;;14.18;12.68;;;;;;;25.87;73.14;92931.55;1729548;81;20995;-79
2021/07/15 14:38:19;;;;;;;17.67;12.37;;;;;;;25.98;71.49;92923.08;1739508;81;21018;-79
2021/07/15 14:40:46;;;;;;;16.57;12.53;;;;;;;26.07;72.22;92908.91;1747942;80;21026;-80
2021/07/15 14:43:24;;;;;;;13.25;11.95;;;;;;;26.13;73.41;92893.69;1736739;80;21019;-80
2021/07/15 14:46:06;;;;;;;13.25;11.88;;;;;;;26.23;72.56;92894.19;1730428;80;21528;-80
2021/07/15 14:48:48;;;;;;;13.40;12.10;;;;;;;26.34;73.04;92894.81;1708606;81;21210;-81